Time;durP1;ratioP1;P1;durP2;ratioP2;P2;SDS_P1;SDS_P2;PMS_P1;PMS_P2;Temp;Humidity;BMP_temperature;BMP_pressure;BME280_temperature;BME280_humidity;BME280_pressure;Samples;Min_cycle;Max_cycle;Signal;HPM_P1;HPM_P2
2022/08/26 00:00:06;;;;;;;4.30;3.90;;;;;;;20.07;66.81;98298.28;4984042;28;20593;-54
2022/08/26 00:02:40;;;;;;;6.00;4.17;;;;;;;20.03;66.81;98297.91;4983625;28;20239;-54
2022/08/26 00:05:07;;;;;;;5.33;4.20;;;;;;;19.99;66.36;98294.09;4984548;28;20271;-52
2022/08/26 00:07:34;;;;;;;4.27;3.80;;;;;;;19.96;67.29;98296.38;4963393;28;20558;-52
2022/08/26 00:10:00;;;;;;;6.17;4.53;;;;;;;19.98;67.61;98292.47;4984850;28;20234;-51
2022/08/26 00:12:27;;;;;;;5.37;4.20;;;;;;;19.99;66.87;98290.63;4983390;28;20221;-53
2022/08/26 00:14:54;;;;;;;4.63;4.20;;;;;;;19.93;66.93;98291.50;4984533;28;20240;-52
2022/08/26 00:17:21;;;;;;;9.27;4.27;;;;;;;19.90;67.68;98288.28;4984531;28;20640;-53
2022/08/26 00:19:49;;;;;;;5.23;3.80;;;;;;;19.92;67.49;98290.69;4984760;28;20238;-55
2022/08/26 00:22:15;;;;;;;8.13;4.17;;;;;;;19.91;67.30;98289.06;4984543;28;20316;-52
2022/08/26 00:24:42;;;;;;;5.47;4.03;;;;;;;19.84;67.74;98286.47;4983947;28;20248;-55
2022/08/26 00:27:09;;;;;;;5.10;4.60;;;;;;;19.87;67.75;98288.69;4983742;28;20246;-54
2022/08/26 00:29:36;;;;;;;7.13;4.00;;;;;;;19.84;67.65;98289.13;4998725;28;20324;-54
2022/08/26 00:32:03;;;;;;;5.23;4.00;;;;;;;19.82;67.83;98288.53;4982324;28;20273;-52
2022/08/26 00:34:30;;;;;;;4.30;3.90;;;;;;;19.81;67.66;98292.22;4981133;28;20230;-53
2022/08/26 00:36:58;;;;;;;4.07;3.67;;;;;;;19.82;67.93;98293.00;4983775;28;20220;-54
2022/08/26 00:39:24;;;;;;;6.23;5.10;;;;;;;19.79;67.87;98288.16;4984217;28;20238;-52
2022/08/26 00:41:51;;;;;;;8.63;4.43;;;;;;;19.75;68.30;98298.38;4984403;28;20252;-51
2022/08/26 00:44:20;;;;;;;4.70;3.90;;;;;;;19.72;68.41;98293.53;4984280;28;20732;-52
2022/08/26 00:46:50;;;;;;;4.73;4.33;;;;;;;19.71;68.90;98303.28;4976215;28;20243;-52
2022/08/26 00:49:24;;;;;;;5.30;4.50;;;;;;;19.72;68.34;98299.63;4983635;28;20317;-52
2022/08/26 00:51:55;;;;;;;4.33;3.93;;;;;;;19.64;68.39;98296.44;4982692;28;20238;-56
2022/08/26 00:54:26;;;;;;;5.37;4.53;;;;;;;19.60;69.15;98296.09;4983481;28;20734;-55
2022/08/26 00:56:57;;;;;;;4.87;4.37;;;;;;;19.59;69.24;98297.91;4983230;28;20336;-52
2022/08/26 00:59:25;;;;;;;4.73;3.90;;;;;;;19.57;68.98;98293.88;4983505;28;20577;-54
2022/08/26 01:01:52;;;;;;;5.30;4.67;;;;;;;19.58;69.21;98291.00;4983943;28;20269;-55
2022/08/26 01:04:23;;;;;;;5.63;4.13;;;;;;;19.58;69.36;98290.19;4983826;28;20232;-55
2022/08/26 01:06:52;;;;;;;5.10;4.37;;;;;;;19.53;69.27;98290.84;4984171;28;20248;-53
2022/08/26 01:09:39;;;;;;;5.47;4.20;;;;;;;19.47;69.68;98295.16;4983385;28;20277;-53
2022/08/26 01:12:06;;;;;;;4.90;4.37;;;;;;;19.50;69.60;98293.13;4983949;28;20247;-52
2022/08/26 01:14:36;;;;;;;6.30;4.00;;;;;;;19.54;69.13;98300.41;4983093;28;20224;-54
2022/08/26 01:17:06;;;;;;;6.37;4.20;;;;;;;19.53;69.22;98293.47;4984048;28;20242;-56
2022/08/26 01:19:37;;;;;;;6.10;4.17;;;;;;;19.46;69.38;98298.84;4983416;28;20228;-52
2022/08/26 01:22:10;;;;;;;6.00;4.07;;;;;;;19.53;69.52;98297.97;4983438;28;20290;-55
2022/08/26 01:24:38;;;;;;;5.53;4.67;;;;;;;19.53;69.58;98297.97;4982412;28;20226;-51
2022/08/26 01:27:12;;;;;;;7.00;4.47;;;;;;;19.46;70.18;98301.50;4982242;28;20664;-54
2022/08/26 01:29:42;;;;;;;4.60;4.20;;;;;;;19.47;70.10;98297.00;4983201;28;21364;-55
2022/08/26 01:32:11;;;;;;;5.20;3.87;;;;;;;19.43;70.29;98298.44;4983373;28;20231;-55
2022/08/26 01:34:38;;;;;;;5.50;4.10;;;;;;;19.45;69.93;98297.22;4981438;28;20222;-54
2022/08/26 01:37:09;;;;;;;6.83;3.80;;;;;;;19.40;70.04;98297.06;4984213;28;20226;-54
2022/08/26 01:39:39;;;;;;;5.27;4.50;;;;;;;19.42;70.12;98300.31;4982749;28;20223;-52
2022/08/26 01:42:10;;;;;;;5.97;4.20;;;;;;;19.33;70.26;98301.59;4983363;28;20237;-56
2022/08/26 01:44:47;;;;;;;4.90;4.20;;;;;;;19.35;70.71;98298.72;4982873;28;20228;-55
2022/08/26 01:47:16;;;;;;;7.73;4.47;;;;;;;19.29;70.81;98303.06;4983091;28;20243;-53
2022/08/26 01:49:44;;;;;;;5.30;4.30;;;;;;;19.25;70.67;98297.38;4982977;28;20714;-55
2022/08/26 01:52:14;;;;;;;6.40;4.30;;;;;;;19.24;70.48;98301.03;4982602;28;20253;-51
2022/08/26 01:54:42;;;;;;;5.17;4.37;;;;;;;19.22;70.83;98295.16;4979734;28;20386;-55
2022/08/26 01:57:09;;;;;;;4.73;4.30;;;;;;;19.21;70.45;98296.19;4983429;28;20246;-53
2022/08/26 01:59:36;;;;;;;5.97;4.27;;;;;;;19.17;71.12;98308.22;4982690;28;20229;-52
2022/08/26 02:02:02;;;;;;;7.77;4.10;;;;;;;19.14;71.08;98306.00;4983499;28;20231;-53
2022/08/26 02:04:34;;;;;;;5.90;4.47;;;;;;;19.14;71.49;98306.00;4982710;28;20224;-52
2022/08/26 02:07:04;;;;;;;4.70;4.30;;;;;;;19.14;71.67;98313.94;4983087;28;20777;-52
2022/08/26 02:09:31;;;;;;;4.47;4.07;;;;;;;19.12;71.29;98310.69;4982891;28;20965;-55
2022/08/26 02:12:00;;;;;;;4.57;3.90;;;;;;;19.09;71.33;98308.47;4982549;28;20317;-55
2022/08/26 02:14:32;;;;;;;6.03;4.17;;;;;;;19.03;71.83;98312.78;4982974;28;20897;-55
2022/08/26 02:16:59;;;;;;;6.83;5.23;;;;;;;19.01;71.72;98312.19;4983531;28;20235;-54
2022/08/26 02:19:29;;;;;;;4.30;3.90;;;;;;;19.02;71.51;98317.28;4982854;28;20228;-54
2022/08/26 02:21:59;;;;;;;5.20;4.70;;;;;;;18.99;71.96;98316.88;4982324;28;20696;-55
2022/08/26 02:24:28;;;;;;;6.17;4.63;;;;;;;18.97;72.08;98316.28;4982388;28;20239;-55
2022/08/26 02:26:56;;;;;;;5.20;4.67;;;;;;;18.92;72.46;98321.38;4997589;28;20597;-51
2022/08/26 02:29:29;;;;;;;4.57;4.17;;;;;;;18.89;72.03;98318.13;4982745;28;20243;-52
2022/08/26 02:31:56;;;;;;;4.30;3.90;;;;;;;18.88;72.23;98323.66;4982826;28;20233;-54
2022/08/26 02:34:27;;;;;;;4.80;4.30;;;;;;;18.87;72.54;98322.03;4981588;28;20242;-55
2022/08/26 02:36:55;;;;;;;4.60;4.10;;;;;;;18.84;72.60;98317.97;4983830;28;20247;-53
2022/08/26 02:39:22;;;;;;;7.10;4.93;;;;;;;18.77;72.48;98319.03;4986100;28;20226;-54
2022/08/26 02:41:49;;;;;;;6.30;4.40;;;;;;;18.79;72.61;98314.34;4986198;28;20904;-54
2022/08/26 02:44:16;;;;;;;5.03;4.60;;;;;;;18.78;72.96;98313.50;4986450;28;20265;-51
2022/08/26 02:46:44;;;;;;;5.47;4.83;;;;;;;18.79;72.38;98317.78;4985833;28;20295;-52
2022/08/26 02:49:10;;;;;;;8.87;4.80;;;;;;;18.72;72.68;98309.91;4985656;28;20726;-52
2022/08/26 02:51:37;;;;;;;5.00;4.27;;;;;;;18.71;73.03;98313.56;4985673;28;20233;-52
2022/08/26 02:54:04;;;;;;;5.73;4.90;;;;;;;18.69;72.73;98309.50;4986184;28;20240;-52
2022/08/26 02:56:33;;;;;;;5.73;5.00;;;;;;;18.62;72.70;98311.34;4985917;28;20229;-53
2022/08/26 02:58:59;;;;;;;4.90;4.50;;;;;;;18.59;72.73;98312.59;4986990;28;20310;-53
2022/08/26 03:01:30;;;;;;;6.93;4.57;;;;;;;18.61;73.60;98315.03;4985320;28;20221;-53
2022/08/26 03:03:58;;;;;;;4.33;3.93;;;;;;;18.67;73.26;98315.00;4985747;28;20310;-55
2022/08/26 03:06:25;;;;;;;5.40;4.80;;;;;;;18.65;74.03;98314.41;4985325;28;20216;-53
2022/08/26 03:08:52;;;;;;;6.47;4.63;;;;;;;18.60;73.75;98311.59;4985952;28;22010;-53
2022/08/26 03:11:19;;;;;;;4.80;4.40;;;;;;;18.55;73.53;98316.69;4985821;28;20636;-54
2022/08/26 03:13:46;;;;;;;5.70;4.60;;;;;;;18.52;74.23;98310.00;4985958;28;20225;-52
2022/08/26 03:16:13;;;;;;;6.17;4.47;;;;;;;18.45;74.03;98309.22;4986779;28;20263;-52
2022/08/26 03:18:40;;;;;;;5.27;4.70;;;;;;;18.38;75.02;98308.44;4984403;28;20650;-52
2022/08/26 03:21:10;;;;;;;4.83;4.33;;;;;;;18.34;74.73;98317.78;4986489;28;20721;-54
2022/08/26 03:23:38;;;;;;;5.23;4.73;;;;;;;18.27;74.73;98312.53;4984916;28;20229;-52
2022/08/26 03:26:06;;;;;;;6.10;4.87;;;;;;;18.17;75.18;98317.44;4984854;28;20249;-53
2022/08/26 03:28:33;;;;;;;7.57;4.60;;;;;;;18.16;75.89;98311.34;4984801;28;20238;-51
2022/08/26 03:30:58;;;;;;;5.83;4.70;;;;;;;18.07;75.83;98316.03;4985607;28;20232;-53
2022/08/26 03:33:26;;;;;;;5.20;4.70;;;;;;;18.04;76.29;98313.00;4985225;28;20245;-54
2022/08/26 03:35:54;;;;;;;5.73;5.00;;;;;;;18.03;76.20;98314.03;4983812;28;20233;-54
2022/08/26 03:38:24;;;;;;;5.10;4.70;;;;;;;17.94;76.04;98308.94;4984847;28;21882;-55
2022/08/26 03:40:51;;;;;;;5.70;5.10;;;;;;;17.90;76.81;98307.72;4985367;28;20245;-51
2022/08/26 03:43:18;;;;;;;5.40;4.90;;;;;;;17.84;77.03;98309.38;4985407;28;20314;-51
2022/08/26 03:45:45;;;;;;;8.30;5.00;;;;;;;17.82;77.20;98313.22;4984186;28;20240;-51
2022/08/26 03:48:12;;;;;;;5.60;5.00;;;;;;;17.82;77.51;98314.03;4984913;28;20225;-55
2022/08/26 03:50:39;;;;;;;5.73;5.03;;;;;;;17.83;77.36;98317.47;4984003;28;20234;-53
2022/08/26 03:53:06;;;;;;;5.97;5.37;;;;;;;17.82;78.01;98311.41;4985611;28;20632;-54
2022/08/26 03:55:34;;;;;;;6.27;4.87;;;;;;;17.88;77.07;98309.75;4985095;28;21037;-51
2022/08/26 03:58:01;;;;;;;5.47;4.90;;;;;;;17.81;77.66;98317.69;4985477;28;20237;-52
2022/08/26 04:00:28;;;;;;;5.63;5.03;;;;;;;17.78;78.09;98318.09;4984884;28;20290;-53
2022/08/26 04:02:55;;;;;;;5.70;4.93;;;;;;;17.76;77.83;98317.50;4985165;28;20251;-55
2022/08/26 04:05:23;;;;;;;5.40;4.67;;;;;;;17.77;78.65;98310.38;4985079;28;20244;-53
2022/08/26 04:07:49;;;;;;;5.73;4.90;;;;;;;17.76;78.83;98312.22;4985137;28;20298;-54
2022/08/26 04:10:18;;;;;;;6.47;4.90;;;;;;;17.77;78.03;98311.19;4985573;28;20238;-55
2022/08/26 04:12:46;;;;;;;5.67;5.07;;;;;;;17.75;78.18;98325.59;4983683;28;21161;-53
2022/08/26 04:15:16;;;;;;;5.70;5.20;;;;;;;17.77;78.48;98318.28;4984633;28;20235;-52
2022/08/26 04:17:42;;;;;;;5.50;4.90;;;;;;;17.73;78.41;98322.38;4984106;28;20566;-52
2022/08/26 04:20:12;;;;;;;5.93;5.30;;;;;;;17.66;78.15;98320.53;4985243;28;20263;-53
2022/08/26 04:22:40;;;;;;;5.73;4.90;;;;;;;17.63;78.83;98320.16;4984305;28;20244;-53
2022/08/26 04:25:08;;;;;;;6.37;4.63;;;;;;;17.62;78.87;98319.31;4984358;28;20251;-54
2022/08/26 04:27:35;;;;;;;5.33;4.93;;;;;;;17.60;78.60;98312.63;4983130;28;20710;-53
2022/08/26 04:30:04;;;;;;;6.13;5.53;;;;;;;17.66;79.35;98314.47;4984005;28;20226;-52
2022/08/26 04:32:31;;;;;;;6.00;5.20;;;;;;;17.67;79.00;98316.88;4983556;28;20684;-52
2022/08/26 04:34:58;;;;;;;10.00;5.50;;;;;;;17.65;78.90;98320.75;4984844;28;20267;-54
2022/08/26 04:37:24;;;;;;;6.13;5.47;;;;;;;17.64;79.00;98319.94;4981204;28;20243;-55
2022/08/26 04:39:52;;;;;;;5.93;5.30;;;;;;;17.71;78.42;98325.22;4984280;28;20233;-52
2022/08/26 04:42:18;;;;;;;7.80;5.20;;;;;;;17.71;78.61;98312.03;4984310;28;20235;-55
2022/08/26 04:44:45;;;;;;;5.00;4.60;;;;;;;17.68;78.87;98320.34;4984109;28;20925;-52
2022/08/26 04:47:13;;;;;;;6.83;5.60;;;;;;;17.74;79.19;98329.25;4984404;28;20232;-55
2022/08/26 04:49:40;;;;;;;6.07;5.47;;;;;;;17.71;79.40;98326.03;4983959;28;20243;-54
2022/08/26 04:52:07;;;;;;;5.53;5.03;;;;;;;17.71;78.82;98318.09;4983824;28;20223;-55
2022/08/26 04:54:33;;;;;;;5.90;4.87;;;;;;;17.71;78.61;98327.88;4983482;28;20222;-56
2022/08/26 04:57:01;;;;;;;8.57;5.13;;;;;;;17.70;78.62;98327.03;4984490;28;20226;-55
2022/08/26 04:59:27;;;;;;;6.13;5.17;;;;;;;17.70;78.98;98332.31;4983387;28;20649;-55
2022/08/26 05:01:58;;;;;;;6.93;5.20;;;;;;;17.80;78.68;98334.56;4983958;28;20719;-53
2022/08/26 05:04:26;;;;;;;6.33;4.97;;;;;;;17.80;78.92;98337.19;4983271;28;20227;-54
2022/08/26 05:06:53;;;;;;;5.90;5.30;;;;;;;17.85;78.66;98337.38;4984046;28;20242;-54
2022/08/26 05:09:20;;;;;;;7.53;4.93;;;;;;;17.90;78.84;98349.16;4983489;28;20237;-52
2022/08/26 05:11:47;;;;;;;7.73;4.93;;;;;;;17.91;78.59;98345.50;4984221;28;20260;-53
2022/08/26 05:14:14;;;;;;;7.40;5.00;;;;;;;17.93;78.89;98352.19;4984026;28;20228;-52
2022/08/26 05:16:41;;;;;;;8.50;5.07;;;;;;;17.97;78.93;98344.69;4983636;28;20715;-54
2022/08/26 05:19:08;;;;;;;6.53;4.60;;;;;;;18.07;78.64;98350.38;4981769;28;20278;-55
2022/08/26 05:21:37;;;;;;;6.10;4.93;;;;;;;18.13;78.28;98346.91;4982917;28;20229;-52
2022/08/26 05:24:04;;;;;;;5.57;4.80;;;;;;;18.15;78.13;98358.06;4983807;28;20224;-53
2022/08/26 05:26:32;;;;;;;6.00;4.97;;;;;;;18.22;77.46;98357.25;4983266;28;20233;-52
2022/08/26 05:28:58;;;;;;;6.47;4.70;;;;;;;18.28;77.78;98361.69;4983562;28;20290;-51
2022/08/26 05:31:29;;;;;;;6.37;4.80;;;;;;;18.35;77.43;98357.22;4983264;28;20324;-55
2022/08/26 05:33:56;;;;;;;5.77;5.03;;;;;;;18.38;76.69;98364.72;4983918;28;20243;-54
2022/08/26 05:36:26;;;;;;;6.40;4.67;;;;;;;18.46;77.01;98370.78;4982635;28;20288;-54
2022/08/26 05:38:54;;;;;;;7.93;5.63;;;;;;;18.52;76.51;98369.97;4980837;28;20240;-51
2022/08/26 05:41:23;;;;;;;7.20;5.47;;;;;;;18.55;76.34;98369.56;4982242;28;21920;-55
2022/08/26 05:43:51;;;;;;;8.07;5.60;;;;;;;18.59;76.25;98370.75;4984006;28;20241;-53
2022/08/26 05:46:18;;;;;;;6.10;5.27;;;;;;;18.70;75.67;98370.09;4983553;28;20714;-51
2022/08/26 05:48:45;;;;;;;6.03;4.63;;;;;;;18.76;76.47;98375.56;4982673;28;20232;-52
2022/08/26 05:51:12;;;;;;;6.37;5.17;;;;;;;18.86;76.95;98368.00;4983737;28;20231;-55
2022/08/26 05:53:40;;;;;;;8.20;4.73;;;;;;;18.92;77.04;98367.16;4982988;28;20243;-53
2022/08/26 05:56:11;;;;;;;7.63;5.30;;;;;;;19.00;76.44;98363.47;4982991;28;20977;-53
2022/08/26 05:58:40;;;;;;;9.17;5.17;;;;;;;19.05;75.84;98374.22;4982322;28;20281;-51
2022/08/26 06:01:09;;;;;;;5.90;5.30;;;;;;;19.11;75.50;98370.75;4982831;28;20224;-52
2022/08/26 06:03:38;;;;;;;5.90;5.10;;;;;;;19.20;75.63;98370.50;4981825;28;20239;-55
2022/08/26 06:06:06;;;;;;;5.77;4.73;;;;;;;19.23;75.43;98381.44;4981566;28;20238;-52
2022/08/26 06:08:52;;;;;;;5.47;4.97;;;;;;;19.30;75.62;98379.56;4982540;28;20251;-52
2022/08/26 06:11:23;;;;;;;5.70;5.07;;;;;;;19.32;75.39;98377.50;4984480;28;20243;-52
2022/08/26 06:13:50;;;;;;;10.83;5.40;;;;;;;19.36;75.02;98375.28;4986677;28;20229;-54
2022/08/26 06:16:18;;;;;;;8.77;5.30;;;;;;;19.43;74.58;98377.84;4987304;28;20319;-52
2022/08/26 06:18:46;;;;;;;7.43;4.53;;;;;;;19.52;73.81;98381.06;4986640;28;20252;-55
2022/08/26 06:21:16;;;;;;;7.50;5.00;;;;;;;19.63;73.55;98383.00;4986587;28;20684;-52
2022/08/26 06:26:29;;;;;;;5.50;4.47;;;;;;;19.89;73.17;98389.13;4986703;28;20221;-52
2022/08/26 06:28:56;;;;;;;5.17;4.60;;;;;;;20.01;72.81;98397.19;4986393;28;20608;-53
2022/08/26 06:31:23;;;;;;;6.47;4.73;;;;;;;20.11;71.77;98394.03;4985692;28;20899;-51
2022/08/26 06:33:51;;;;;;;7.33;5.40;;;;;;;20.27;70.12;98398.78;4985931;28;20233;-52
2022/08/26 06:36:20;;;;;;;8.07;4.80;;;;;;;20.48;68.75;98394.88;4987275;28;20242;-55
2022/08/26 06:38:47;;;;;;;10.33;5.60;;;;;;;20.63;67.58;98407.78;4985148;28;20821;-52
2022/08/26 06:41:15;;;;;;;5.80;5.17;;;;;;;20.85;65.79;98409.16;4986361;28;20324;-53
2022/08/26 06:43:43;;;;;;;7.80;5.50;;;;;;;21.02;64.99;98412.00;4985789;28;20251;-52
2022/08/26 06:46:12;;;;;;;6.77;6.03;;;;;;;21.23;63.66;98410.69;4986923;28;20663;-55
2022/08/26 06:48:40;;;;;;;6.07;5.32;;;;;;;21.50;63.42;98413.78;4984746;28;20464;-52
2022/08/26 06:51:10;;;;;;;5.47;4.90;;;;;;;21.77;61.91;98417.91;4986583;28;20250;-56
2022/08/26 06:53:37;;;;;;;6.03;5.40;;;;;;;21.83;60.16;98420.44;4984662;28;20218;-52
2022/08/26 06:56:06;;;;;;;5.40;4.90;;;;;;;22.11;60.04;98415.50;4986245;28;20253;-55
2022/08/26 06:58:33;;;;;;;6.67;5.60;;;;;;;22.35;58.85;98420.78;4986025;28;20221;-55
2022/08/26 07:01:02;;;;;;;6.17;5.13;;;;;;;22.33;59.07;98422.88;4985452;28;20224;-54
2022/08/26 07:03:28;;;;;;;8.27;5.33;;;;;;;22.45;58.61;98420.25;4985440;28;20242;-52
2022/08/26 07:06:01;;;;;;;9.90;5.40;;;;;;;22.55;58.04;98420.47;4986429;28;20570;-54
2022/08/26 07:08:28;;;;;;;10.33;6.00;;;;;;;22.54;57.86;98426.81;4985438;28;20231;-52
2022/08/26 07:10:55;;;;;;;7.70;5.57;;;;;;;22.59;58.10;98424.28;4986687;28;20589;-54
2022/08/26 07:13:22;;;;;;;7.20;5.80;;;;;;;22.48;58.07;98425.88;4985947;28;20234;-52
2022/08/26 07:15:49;;;;;;;7.10;5.63;;;;;;;22.66;58.42;98422.28;4985204;28;20245;-52
2022/08/26 07:18:17;;;;;;;7.23;5.63;;;;;;;22.72;57.70;98425.84;4986133;28;20241;-52
2022/08/26 07:20:44;;;;;;;5.83;5.07;;;;;;;22.85;57.30;98422.91;4985383;28;20238;-53
2022/08/26 07:23:11;;;;;;;9.13;5.47;;;;;;;22.89;56.86;98425.91;4985888;28;20234;-53
2022/08/26 07:25:39;;;;;;;7.40;5.37;;;;;;;22.78;57.03;98418.78;4983990;28;20224;-55
2022/08/26 07:28:07;;;;;;;7.20;5.33;;;;;;;22.84;56.98;98425.81;4986164;28;20233;-54
2022/08/26 07:30:39;;;;;;;6.03;4.87;;;;;;;23.05;55.89;98424.38;4983844;28;20227;-51
2022/08/26 07:33:06;;;;;;;5.57;4.97;;;;;;;23.20;55.50;98431.03;4985344;28;20566;-54
2022/08/26 07:35:34;;;;;;;7.90;5.07;;;;;;;23.28;55.36;98428.81;4985162;28;20225;-52
2022/08/26 07:38:01;;;;;;;8.83;5.07;;;;;;;23.48;54.87;98418.72;4985211;28;20224;-53
2022/08/26 07:40:28;;;;;;;7.07;4.90;;;;;;;23.36;54.42;98424.94;4982180;28;20229;-55
2022/08/26 07:42:55;;;;;;;7.17;5.27;;;;;;;23.35;54.77;98425.97;4985204;28;20327;-52
2022/08/26 07:45:22;;;;;;;5.60;5.10;;;;;;;23.42;54.54;98413.31;4983752;28;20593;-52
2022/08/26 07:47:49;;;;;;;5.97;4.97;;;;;;;23.29;55.17;98413.66;4985361;28;20622;-54
2022/08/26 07:50:16;;;;;;;6.10;5.13;;;;;;;23.10;55.20;98413.00;4985783;28;20709;-52
2022/08/26 07:52:44;;;;;;;7.17;5.07;;;;;;;23.13;55.67;98415.19;4984805;28;20265;-53
2022/08/26 07:55:11;;;;;;;5.47;4.90;;;;;;;23.27;54.91;98415.75;4985870;28;20242;-52
2022/08/26 07:57:37;;;;;;;5.73;5.13;;;;;;;23.24;54.38;98414.34;4984800;28;20677;-53
2022/08/26 08:00:07;;;;;;;5.37;4.63;;;;;;;23.32;54.67;98407.03;4966084;28;20241;-55
2022/08/26 08:02:39;;;;;;;7.63;5.13;;;;;;;23.33;54.72;98411.31;4981648;28;20226;-51
2022/08/26 08:05:06;;;;;;;7.37;4.77;;;;;;;23.57;54.86;98407.47;4984332;28;20497;-55
2022/08/26 08:07:32;;;;;;;8.07;5.20;;;;;;;23.72;54.22;98414.88;4984116;28;20244;-53
2022/08/26 08:10:00;;;;;;;6.00;5.20;;;;;;;23.85;53.50;98408.41;4984636;28;20218;-53
2022/08/26 08:12:27;;;;;;;6.50;5.30;;;;;;;24.04;53.10;98418.84;4983332;28;20227;-53
2022/08/26 08:14:54;;;;;;;8.03;4.40;;;;;;;24.07;53.02;98413.03;4983915;28;20304;-55
2022/08/26 08:17:21;;;;;;;6.60;5.30;;;;;;;24.18;52.76;98419.31;4983192;28;20224;-54
2022/08/26 08:19:47;;;;;;;6.20;4.83;;;;;;;24.34;53.03;98415.00;4984409;28;20240;-55
2022/08/26 08:22:16;;;;;;;8.33;5.37;;;;;;;24.31;53.25;98415.50;4983128;28;20233;-52
2022/08/26 08:24:43;;;;;;;8.17;4.90;;;;;;;24.33;53.28;98418.72;4983483;28;20227;-52
2022/08/26 08:27:11;;;;;;;5.97;4.97;;;;;;;24.46;52.84;98417.53;4983665;28;20240;-52
2022/08/26 08:29:38;;;;;;;8.80;5.53;;;;;;;24.46;52.46;98414.88;4982026;28;20228;-53
2022/08/26 08:32:23;;;;;;;7.43;5.33;;;;;;;24.36;52.42;98410.22;4982535;28;20291;-55
2022/08/26 08:34:50;;;;;;;8.07;4.90;;;;;;;24.48;51.88;98410.09;4984120;28;20236;-52
2022/08/26 08:37:17;;;;;;;7.17;5.73;;;;;;;24.48;52.17;98418.09;4984603;28;20609;-55
2022/08/26 08:39:44;;;;;;;6.57;5.30;;;;;;;24.55;52.08;98421.41;4981825;28;20243;-55
2022/08/26 08:42:32;;;;;;;10.57;5.47;;;;;;;24.67;52.49;98420.47;4981249;28;20236;-55
2022/08/26 08:45:05;;;;;;;5.87;5.10;;;;;;;24.68;52.35;98424.75;4983762;28;20229;-55
2022/08/26 08:47:35;;;;;;;10.77;5.83;;;;;;;24.74;52.22;98415.78;4981954;28;20241;-56
2022/08/26 08:50:12;;;;;;;7.47;5.00;;;;;;;24.80;52.41;98414.78;4998409;28;21112;-53
2022/08/26 08:52:43;;;;;;;5.93;5.33;;;;;;;24.90;51.46;98417.56;4982640;28;20233;-53
2022/08/26 08:55:14;;;;;;;8.37;5.77;;;;;;;24.93;51.41;98412.78;4984123;28;20233;-53
2022/08/26 08:57:59;;;;;;;7.33;4.90;;;;;;;25.03;51.19;98418.25;4982738;28;20235;-55
2022/08/26 09:00:31;;;;;;;6.90;5.40;;;;;;;25.05;50.65;98421.47;4981288;28;20238;-53
2022/08/26 09:03:03;;;;;;;7.40;5.43;;;;;;;25.15;50.20;98423.44;4982718;28;20238;-55
2022/08/26 09:05:38;;;;;;;5.97;5.37;;;;;;;25.20;50.19;98423.47;4982073;28;20231;-54
2022/08/26 09:08:10;;;;;;;6.37;5.03;;;;;;;25.21;50.56;98419.75;4983177;28;20235;-56
2022/08/26 09:10:40;;;;;;;6.07;5.17;;;;;;;25.25;49.83;98420.06;4982835;28;20229;-55
2022/08/26 09:13:11;;;;;;;5.60;5.10;;;;;;;25.35;49.34;98426.31;4982317;28;20233;-55
2022/08/26 09:15:53;;;;;;;6.77;5.23;;;;;;;25.25;48.96;98428.09;4980327;28;20764;-56
2022/08/26 09:18:34;;;;;;;5.50;5.00;;;;;;;25.37;49.45;98423.41;4977478;28;20240;-55
2022/08/26 09:21:03;;;;;;;5.90;4.77;;;;;;;25.42;49.27;98425.28;4981112;28;20606;-53
2022/08/26 09:23:32;;;;;;;8.23;5.10;;;;;;;25.53;49.55;98427.03;4982053;28;20241;-53
2022/08/26 09:26:01;;;;;;;10.00;5.00;;;;;;;25.72;47.54;98413.28;4980588;28;20241;-54
2022/08/26 09:28:31;;;;;;;5.43;4.87;;;;;;;25.81;48.03;98417.09;4997293;28;20287;-53
2022/08/26 09:31:10;;;;;;;9.03;4.83;;;;;;;26.01;47.38;98421.78;4981901;28;20350;-54
2022/08/26 09:33:38;;;;;;;13.53;5.77;;;;;;;25.93;47.45;98419.59;4981369;28;20229;-52
2022/08/26 09:36:21;;;;;;;8.33;5.40;;;;;;;25.96;47.70;98416.41;4982237;28;20222;-52
2022/08/26 09:38:49;;;;;;;8.23;4.90;;;;;;;26.17;46.92;98414.69;4982712;28;20249;-53
2022/08/26 09:41:26;;;;;;;6.97;5.30;;;;;;;26.20;46.42;98413.38;4979934;28;20226;-55
2022/08/26 09:44:14;;;;;;;8.93;4.77;;;;;;;26.20;48.58;98419.50;4981490;28;21211;-56
2022/08/26 09:46:46;;;;;;;6.37;4.90;;;;;;;26.35;46.80;98421.47;4983236;28;20250;-50
2022/08/26 09:49:35;;;;;;;9.67;5.77;;;;;;;26.29;46.03;98400.28;4987362;28;20315;-54
2022/08/26 09:52:14;;;;;;;6.33;5.13;;;;;;;26.37;46.39;98394.44;4985721;28;20231;-54
2022/08/26 09:54:42;;;;;;;5.67;4.60;;;;;;;26.57;45.79;98400.97;4986223;28;20234;-53
2022/08/26 09:57:21;;;;;;;8.97;4.73;;;;;;;26.76;45.32;98406.66;4986525;28;20227;-54
2022/08/26 09:59:49;;;;;;;7.90;4.87;;;;;;;26.87;44.31;98397.59;4986591;28;20235;-50
2022/08/26 10:02:37;;;;;;;6.63;4.78;;;;;;;26.89;45.23;98395.47;4985813;28;20247;-54
2022/08/26 10:05:08;;;;;;;7.87;5.33;;;;;;;26.71;44.74;98391.38;4987202;28;20247;-52
2022/08/26 10:07:42;;;;;;;5.47;4.97;;;;;;;26.82;44.68;98386.88;4984848;28;20235;-51
2022/08/26 10:10:14;;;;;;;8.33;4.93;;;;;;;27.05;43.85;98376.75;4986543;28;20235;-51
2022/08/26 10:12:51;;;;;;;11.63;5.17;;;;;;;27.09;44.59;98377.84;4965900;28;20235;-51
2022/08/26 10:15:23;;;;;;;7.10;4.87;;;;;;;27.11;44.00;98373.03;4985554;28;20238;-51
2022/08/26 10:17:58;;;;;;;6.30;4.97;;;;;;;27.32;43.96;98370.38;4985252;28;20231;-53
2022/08/26 10:20:28;;;;;;;7.30;5.07;;;;;;;27.38;42.72;98366.63;4986243;28;20232;-52
2022/08/26 10:22:59;;;;;;;7.47;5.23;;;;;;;27.36;42.76;98356.16;4986626;28;20240;-54
2022/08/26 10:25:31;;;;;;;11.30;5.10;;;;;;;27.34;43.91;98350.25;4986452;28;20239;-52
2022/08/26 10:28:05;;;;;;;7.33;5.03;;;;;;;27.41;44.25;98356.16;4984831;28;20881;-51
2022/08/26 10:30:40;;;;;;;5.25;4.53;;;;;;;27.54;42.93;98348.66;4984572;28;20600;-53
2022/08/26 10:33:09;;;;;;;5.90;4.70;;;;;;;27.75;42.41;98354.81;4986445;28;20260;-51
2022/08/26 10:35:43;;;;;;;6.03;4.55;;;;;;;27.84;42.18;98350.50;4986278;28;20233;-51
2022/08/26 10:38:14;;;;;;;9.50;4.63;;;;;;;28.17;41.37;98349.38;4986358;28;20235;-55
2022/08/26 10:40:50;;;;;;;6.63;4.50;;;;;;;28.22;40.75;98342.09;4985533;28;20592;-54
2022/08/26 10:43:22;;;;;;;5.95;4.85;;;;;;;28.37;40.74;98348.47;4984118;28;20235;-51
2022/08/26 10:46:13;;;;;;;7.80;4.65;;;;;;;28.45;41.03;98347.13;4985317;28;20247;-53
2022/08/26 10:48:46;;;;;;;6.40;4.43;;;;;;;28.49;40.79;98343.59;4985467;28;20263;-53
2022/08/26 10:51:16;;;;;;;5.00;4.47;;;;;;;28.56;40.48;98343.31;4986184;28;20253;-51
2022/08/26 10:53:54;;;;;;;6.83;4.70;;;;;;;28.65;40.03;98330.88;4985196;28;20254;-52
2022/08/26 10:56:32;;;;;;;7.27;4.30;;;;;;;28.59;39.86;98332.03;4985508;28;20251;-54
2022/08/26 10:59:06;;;;;;;5.20;4.65;;;;;;;28.79;39.71;98331.13;4986138;28;20232;-53
2022/08/26 11:01:41;;;;;;;12.43;4.97;;;;;;;28.79;39.28;98331.13;4984914;28;20239;-54
2022/08/26 11:04:20;;;;;;;6.57;4.45;;;;;;;28.85;40.62;98323.81;4984949;28;20238;-54
2022/08/26 11:06:47;;;;;;;5.63;4.27;;;;;;;28.99;39.16;98327.47;4985018;28;20322;-51
2022/08/26 11:09:45;;;;;;;6.45;4.40;;;;;;;29.14;39.89;98323.88;4986099;28;20227;-54
2022/08/26 11:12:46;;;;;;;6.50;5.03;;;;;;;29.30;39.31;98315.69;4984839;28;20250;-55
2022/08/26 11:15:34;;;;;;;8.57;4.32;;;;;;;29.43;38.89;98316.94;4984881;28;20240;-55
2022/08/26 11:18:04;;;;;;;6.88;3.97;;;;;;;29.36;38.64;98317.22;4984026;28;20230;-54
2022/08/26 11:20:37;;;;;;;5.50;4.07;;;;;;;29.25;38.73;98316.53;4984599;28;20223;-52
2022/08/26 11:23:38;;;;;;;7.30;4.13;;;;;;;29.45;38.57;98307.50;4985416;28;20723;-55
2022/08/26 11:26:17;;;;;;;6.28;4.30;;;;;;;29.36;38.09;98303.00;4971645;28;20238;-51
2022/08/26 11:28:46;;;;;;;6.68;4.18;;;;;;;29.36;38.21;98297.63;4984689;28;20751;-50
2022/08/26 11:31:53;;;;;;;9.15;4.50;;;;;;;29.48;37.71;98300.78;4985000;28;20331;-53
2022/08/26 11:34:51;;;;;;;4.37;3.97;;;;;;;29.92;36.67;98311.59;4985105;28;21494;-53
2022/08/26 11:37:18;;;;;;;5.45;4.18;;;;;;;29.89;36.72;98308.41;4984680;28;20652;-51
2022/08/26 11:39:48;;;;;;;5.35;4.40;;;;;;;29.74;36.14;98304.00;4984796;28;20241;-52
2022/08/26 11:42:23;;;;;;;6.15;4.40;;;;;;;29.95;36.82;98293.00;4984177;28;20235;-58
2022/08/26 11:44:50;;;;;;;7.25;4.32;;;;;;;30.12;37.02;98295.25;4983175;28;20295;-51
2022/08/26 11:47:26;;;;;;;5.03;4.47;;;;;;;30.43;36.16;98296.72;4984419;28;20234;-52
2022/08/26 11:50:09;;;;;;;5.80;4.97;;;;;;;30.17;37.34;98286.31;4977708;28;20239;-55